createdAt,value
2022-09-21T00:01:27.390Z,3.47
2022-09-21T00:03:56.808Z,2.92
2022-09-21T00:06:25.441Z,3.00
2022-09-21T00:08:53.089Z,3.33
2022-09-21T00:11:24.774Z,3.10
2022-09-21T00:13:55.293Z,2.60
2022-09-21T00:16:23.794Z,3.37
2022-09-21T00:18:51.485Z,3.17
2022-09-21T00:21:19.291Z,3.47
2022-09-21T00:23:46.880Z,3.10
2022-09-21T00:26:16.894Z,3.22
2022-09-21T00:28:44.667Z,3.50
2022-09-21T00:31:14.484Z,2.90
2022-09-21T00:33:43.487Z,3.00
2022-09-21T00:36:14.843Z,3.20
2022-09-21T00:38:42.548Z,3.20
2022-09-21T00:41:10.731Z,2.83
2022-09-21T00:43:43.078Z,3.35
2022-09-21T00:46:16.209Z,3.17
2022-09-21T00:48:43.599Z,2.87
2022-09-21T00:51:11.231Z,3.45
2022-09-21T00:53:38.788Z,3.00
2022-09-21T00:56:06.956Z,3.20
2022-09-21T00:58:40.488Z,3.00
2022-09-21T01:01:08.095Z,2.78
2022-09-21T01:03:35.716Z,2.90
2022-09-21T01:06:03.533Z,3.05
2022-09-21T01:08:31.498Z,2.78
2022-09-21T01:11:22.829Z,2.90
2022-09-21T01:14:08.831Z,3.00
2022-09-21T01:17:03.686Z,3.37
2022-09-21T01:19:39.840Z,3.20
2022-09-21T01:22:33.015Z,3.03
2022-09-21T01:25:21.858Z,3.12
2022-09-21T01:28:07.115Z,2.70
2022-09-21T01:30:36.364Z,3.28
2022-09-21T01:33:13.973Z,3.10
2022-09-21T01:35:48.576Z,2.90
2022-09-21T01:38:22.095Z,3.17
2022-09-21T01:40:52.924Z,3.12
2022-09-21T01:43:31.814Z,2.60
2022-09-21T01:46:02.087Z,3.03
2022-09-21T01:48:35.140Z,2.90
2022-09-21T01:51:06.378Z,2.78
2022-09-21T01:53:49.536Z,3.00
2022-09-21T01:56:31.061Z,3.00
2022-09-21T01:59:07.484Z,2.87
2022-09-21T02:01:52.311Z,3.00
2022-09-21T02:04:19.932Z,2.70
2022-09-21T02:06:47.843Z,2.60
2022-09-21T02:09:15.201Z,3.00
2022-09-21T02:11:44.861Z,2.95
2022-09-21T02:14:18.441Z,2.70
2022-09-21T02:16:58.320Z,3.33
2022-09-21T02:19:54.323Z,2.60
2022-09-21T02:22:36.225Z,3.12
2022-09-21T02:25:10.633Z,2.55
2022-09-21T02:27:40.934Z,3.30
2022-09-21T02:30:18.135Z,2.75
2022-09-21T02:32:51.376Z,2.62
2022-09-21T02:36:09.903Z,2.95
2022-09-21T02:38:53.468Z,3.22
2022-09-21T02:41:28.308Z,2.95
2022-09-21T02:44:01.428Z,2.90
2022-09-21T02:46:29.615Z,2.95
2022-09-21T02:49:01.164Z,3.03
2022-09-21T02:51:33.912Z,2.87
2022-09-21T02:54:04.653Z,2.80
2022-09-21T02:56:32.110Z,3.20
2022-09-21T02:59:02.152Z,2.78
2022-09-21T03:01:31.073Z,2.72
2022-09-21T03:03:58.848Z,3.55
2022-09-21T03:06:26.424Z,3.33
2022-09-21T03:08:53.989Z,2.83
2022-09-21T03:11:21.258Z,3.17
2022-09-21T03:13:48.554Z,2.90
2022-09-21T03:16:16.421Z,3.25
2022-09-21T03:18:44.330Z,3.05
2022-09-21T03:21:12.250Z,2.97
2022-09-21T03:23:40.395Z,3.30
2022-09-21T03:26:08.518Z,3.42
2022-09-21T03:28:35.875Z,3.42
2022-09-21T03:31:03.477Z,3.08
2022-09-21T03:33:30.836Z,3.22
2022-09-21T03:35:58.179Z,2.72
2022-09-21T03:38:26.866Z,2.90
2022-09-21T03:40:57.796Z,3.22
2022-09-21T03:43:25.465Z,3.25
2022-09-21T03:45:53.330Z,3.55
2022-09-21T03:48:21.602Z,3.35
2022-09-21T03:50:48.946Z,3.22
2022-09-21T03:53:16.882Z,3.30
2022-09-21T03:55:44.191Z,3.40
2022-09-21T03:58:11.478Z,3.37
2022-09-21T04:00:39.292Z,3.60
2022-09-21T04:03:06.887Z,3.42
2022-09-21T04:05:34.450Z,3.08
2022-09-21T04:08:02.214Z,3.33
2022-09-21T04:10:33.153Z,3.78
2022-09-21T04:13:02.067Z,3.65
2022-09-21T04:15:29.992Z,3.40
2022-09-21T04:17:57.389Z,3.42
2022-09-21T04:20:24.710Z,3.70
2022-09-21T04:22:52.684Z,3.85
2022-09-21T04:25:20.575Z,4.60
2022-09-21T04:27:47.910Z,4.57
2022-09-21T04:30:16.599Z,4.35
2022-09-21T04:32:44.083Z,4.03
2022-09-21T04:35:11.347Z,3.90
2022-09-21T04:37:38.898Z,3.85
2022-09-21T04:40:07.643Z,3.67
2022-09-21T04:42:35.011Z,4.18
2022-09-21T04:45:03.331Z,4.53
2022-09-21T04:47:31.347Z,4.12
2022-09-21T04:49:58.674Z,3.90
2022-09-21T04:52:26.435Z,4.22
2022-09-21T04:54:53.751Z,4.30
2022-09-21T04:57:21.067Z,3.97
2022-09-21T04:59:48.653Z,4.37
2022-09-21T05:02:15.960Z,4.97
2022-09-21T05:04:46.397Z,4.32
2022-09-21T05:07:16.918Z,4.85
2022-09-21T05:10:02.847Z,4.72
2022-09-21T05:12:35.963Z,4.12
2022-09-21T05:15:05.842Z,5.62
2022-09-21T05:17:35.560Z,4.85
2022-09-21T05:20:03.723Z,4.87
2022-09-21T05:22:31.019Z,4.70
2022-09-21T05:24:58.595Z,5.47
2022-09-21T05:27:26.082Z,5.30
2022-09-21T05:29:53.902Z,5.78
2022-09-21T05:32:41.790Z,5.50
2022-09-21T05:35:29.124Z,6.00
2022-09-21T05:38:04.979Z,5.25
2022-09-21T05:40:33.063Z,5.45
2022-09-21T05:43:00.887Z,5.37
2022-09-21T05:45:28.984Z,5.62
2022-09-21T05:48:19.834Z,4.90
2022-09-21T05:51:09.042Z,5.10
2022-09-21T05:54:14.100Z,5.18
2022-09-21T05:57:05.048Z,5.12
2022-09-21T06:00:06.361Z,5.00
2022-09-21T06:02:50.905Z,5.57
2022-09-21T06:05:18.868Z,5.57
2022-09-21T06:07:46.153Z,5.07
2022-09-21T06:10:14.035Z,5.10
2022-09-21T06:12:42.332Z,5.95
2022-09-21T06:15:13.680Z,5.28
2022-09-21T06:17:41.214Z,5.78
2022-09-21T06:20:09.474Z,5.40
2022-09-21T06:22:36.755Z,5.87
2022-09-21T06:25:04.261Z,6.05
2022-09-21T06:27:31.828Z,5.53
2022-09-21T06:29:59.154Z,5.00
2022-09-21T06:32:26.683Z,4.90
2022-09-21T06:34:54.254Z,4.80
2022-09-21T06:37:21.584Z,4.50
2022-09-21T06:39:48.851Z,4.80
2022-09-21T06:42:16.469Z,4.97
2022-09-21T06:44:44.271Z,5.00
2022-09-21T06:47:11.595Z,5.15
2022-09-21T06:49:42.349Z,4.65
2022-09-21T06:52:10.137Z,5.22
2022-09-21T06:54:41.027Z,4.62
2022-09-21T06:57:08.577Z,5.07
2022-09-21T06:59:35.896Z,4.95
2022-09-21T07:02:03.820Z,5.45
2022-09-21T07:04:31.956Z,4.43
2022-09-21T07:07:02.633Z,5.57
2022-09-21T07:12:18.967Z,4.87
2022-09-21T07:14:46.592Z,4.97
2022-09-21T07:17:15.735Z,4.53
2022-09-21T07:19:43.220Z,4.20
2022-09-21T07:22:10.776Z,4.87
2022-09-21T07:24:38.064Z,4.82
2022-09-21T07:27:05.388Z,4.37
2022-09-21T07:29:32.926Z,4.28
2022-09-21T07:32:00.296Z,4.55
2022-09-21T07:34:27.635Z,5.07
2022-09-21T07:36:55.212Z,4.30
2022-09-21T07:39:22.504Z,3.87
2022-09-21T07:41:49.805Z,4.37
2022-09-21T07:44:17.435Z,5.55
2022-09-21T07:46:48.220Z,4.50
2022-09-21T07:49:15.653Z,4.43
2022-09-21T07:51:43.570Z,4.85
2022-09-21T07:54:10.989Z,4.07
2022-09-21T07:56:38.311Z,3.80
2022-09-21T07:59:06.008Z,3.95
2022-09-21T08:01:35.164Z,4.12
2022-09-21T08:04:04.318Z,3.83
2022-09-21T08:06:33.056Z,4.10
2022-09-21T08:09:01.342Z,3.10
2022-09-21T08:11:30.249Z,3.50
2022-09-21T08:14:00.028Z,3.62
2022-09-21T08:16:29.079Z,3.53
2022-09-21T08:19:20.363Z,3.60
2022-09-21T08:21:54.917Z,3.83
2022-09-21T08:24:26.668Z,3.42
2022-09-21T08:26:55.747Z,3.08
2022-09-21T08:29:25.440Z,3.53
2022-09-21T08:31:56.207Z,3.50
2022-09-21T08:34:24.079Z,2.80
2022-09-21T08:36:55.200Z,3.00
2022-09-21T08:39:23.943Z,3.00
2022-09-21T08:42:03.578Z,3.22
2022-09-21T08:44:48.763Z,2.25
2022-09-21T08:47:19.918Z,2.25
2022-09-21T08:49:51.552Z,2.73
2022-09-21T08:52:19.711Z,2.20
2022-09-21T08:55:18.700Z,2.67
2022-09-21T08:57:46.062Z,2.60
2022-09-21T09:00:15.919Z,2.67
2022-09-21T09:03:04.224Z,2.50
2022-09-21T09:05:55.760Z,2.45
2022-09-21T09:08:58.515Z,2.80
2022-09-21T09:11:52.752Z,2.53
2022-09-21T09:14:36.628Z,2.70
2022-09-21T09:17:19.007Z,2.40
2022-09-21T09:20:15.075Z,3.10
2022-09-21T09:22:57.975Z,2.65
2022-09-21T09:25:25.276Z,3.10
2022-09-21T09:27:58.863Z,3.00
2022-09-21T09:30:28.535Z,2.70
2022-09-21T09:33:02.135Z,2.37
2022-09-21T09:35:33.311Z,2.25
2022-09-21T09:38:25.975Z,2.47
2022-09-21T09:41:05.691Z,2.10
2022-09-21T09:43:36.240Z,2.17
2022-09-21T09:46:19.410Z,2.30
2022-09-21T09:48:58.807Z,2.03
2022-09-21T09:51:26.823Z,2.03
2022-09-21T09:53:58.320Z,2.20
2022-09-21T09:56:25.648Z,1.87
2022-09-21T09:58:57.407Z,1.77
2022-09-21T10:01:44.296Z,1.83
2022-09-21T10:04:13.847Z,2.20
2022-09-21T10:06:46.098Z,2.05
2022-09-21T10:09:25.683Z,1.40
2022-09-21T10:11:57.029Z,1.80
2022-09-21T10:14:25.819Z,1.87
2022-09-21T10:16:53.653Z,1.52
2022-09-21T10:19:23.708Z,1.92
2022-09-21T10:21:56.352Z,1.87
2022-09-21T10:24:26.899Z,2.08
2022-09-21T10:26:56.762Z,1.85
2022-09-21T10:29:23.968Z,1.90
2022-09-21T10:32:00.367Z,1.70
2022-09-21T10:34:30.423Z,1.60
2022-09-21T10:37:00.114Z,1.67
2022-09-21T10:39:32.142Z,1.52
2022-09-21T10:41:59.382Z,1.42
2022-09-21T10:44:29.648Z,1.67
2022-09-21T10:46:58.616Z,1.23
2022-09-21T10:49:27.567Z,1.37
2022-09-21T10:51:57.537Z,1.40
2022-09-21T10:54:28.481Z,1.70
2022-09-21T10:57:03.429Z,1.50
2022-09-21T10:59:33.210Z,1.15
2022-09-21T11:02:02.809Z,1.15
2022-09-21T11:04:39.903Z,1.20
2022-09-21T11:07:15.580Z,1.15
2022-09-21T11:09:53.818Z,1.20
2022-09-21T11:12:43.092Z,1.30
2022-09-21T11:15:30.798Z,1.17
2022-09-21T11:18:13.030Z,1.20
2022-09-21T11:20:49.929Z,0.98
2022-09-21T11:23:32.689Z,1.02
2022-09-21T11:26:35.157Z,0.73
2022-09-21T11:31:55.187Z,0.70
2022-09-21T11:34:54.181Z,0.80
2022-09-21T11:37:30.907Z,0.70
2022-09-21T11:40:24.586Z,0.73
2022-09-21T11:43:13.615Z,0.70
2022-09-21T11:46:05.740Z,0.90
2022-09-21T11:49:18.223Z,0.60
2022-09-21T11:52:09.170Z,0.90
2022-09-21T11:55:18.875Z,0.80
2022-09-21T11:57:57.105Z,0.60
2022-09-21T12:00:26.600Z,0.80
2022-09-21T12:03:16.032Z,1.42
2022-09-21T12:06:01.729Z,0.80
2022-09-21T12:09:20.250Z,0.82
2022-09-21T12:12:02.563Z,0.77
2022-09-21T12:14:42.571Z,0.70
2022-09-21T12:17:32.305Z,0.90
2022-09-21T12:20:15.748Z,0.70
2022-09-21T12:22:45.403Z,0.60
2022-09-21T12:25:26.342Z,0.70
2022-09-21T12:28:20.820Z,0.80
2022-09-21T12:30:51.368Z,0.70
2022-09-21T12:33:31.467Z,0.80
2022-09-21T12:36:07.912Z,0.70
2022-09-21T12:38:41.035Z,0.60
2022-09-21T12:41:17.959Z,1.17
2022-09-21T12:44:00.991Z,0.60
2022-09-21T12:46:32.332Z,0.47
2022-09-21T12:49:02.038Z,0.30
2022-09-21T12:51:40.478Z,0.22
2022-09-21T12:54:30.936Z,0.37
2022-09-21T12:57:42.529Z,0.30
2022-09-21T13:00:11.916Z,0.50
2022-09-21T13:02:50.789Z,0.50
2022-09-21T13:05:41.419Z,0.68
2022-09-21T13:08:17.460Z,0.60
2022-09-21T13:10:54.705Z,0.30
2022-09-21T13:13:29.585Z,0.47
2022-09-21T13:16:04.533Z,0.50
2022-09-21T13:18:36.402Z,0.93
2022-09-21T13:21:26.292Z,1.10
2022-09-21T13:23:57.561Z,0.98
2022-09-21T13:26:39.032Z,0.88
2022-09-21T13:29:27.623Z,0.90
2022-09-21T13:32:11.226Z,0.82
2022-09-21T13:34:43.326Z,0.95
2022-09-21T13:37:25.577Z,0.90
2022-09-21T13:42:48.538Z,1.50
2022-09-21T13:45:18.674Z,0.37
2022-09-21T13:47:48.000Z,0.40
2022-09-21T13:50:37.116Z,0.40
2022-09-21T13:53:25.536Z,0.70
2022-09-21T13:56:02.105Z,0.30
2022-09-21T13:58:41.090Z,0.60
2022-09-21T14:01:47.213Z,0.47
2022-09-21T14:04:25.383Z,0.80
2022-09-21T14:06:54.198Z,0.60
2022-09-21T14:09:29.547Z,0.50
2022-09-21T14:12:01.624Z,0.52
2022-09-21T14:14:36.043Z,0.98
2022-09-21T14:17:49.314Z,0.45
2022-09-21T14:20:32.790Z,0.65
2022-09-21T14:23:28.394Z,0.70
2022-09-21T14:25:57.862Z,0.40
2022-09-21T14:28:34.762Z,0.60
2022-09-21T14:31:07.211Z,0.55
2022-09-21T14:34:01.659Z,0.60
2022-09-21T14:36:38.348Z,0.60
2022-09-21T14:39:07.859Z,1.20
2022-09-21T14:41:40.729Z,0.80
2022-09-21T14:44:19.974Z,1.00
2022-09-21T14:46:50.849Z,0.88
2022-09-21T14:49:19.355Z,1.00
2022-09-21T14:52:12.947Z,1.02
2022-09-21T14:55:17.174Z,1.00
2022-09-21T14:57:55.770Z,0.70
2022-09-21T15:00:35.486Z,0.60
2022-09-21T15:03:22.219Z,0.68
2022-09-21T15:05:55.066Z,0.70
2022-09-21T15:09:09.279Z,0.50
2022-09-21T15:11:41.061Z,0.55
2022-09-21T15:14:34.763Z,0.60
2022-09-21T15:17:19.599Z,0.70
2022-09-21T15:19:47.170Z,0.77
2022-09-21T15:22:22.270Z,0.85
2022-09-21T15:25:02.772Z,0.90
2022-09-21T15:27:32.915Z,1.80
2022-09-21T15:30:02.473Z,1.10
2022-09-21T15:32:36.698Z,0.60
2022-09-21T15:35:24.717Z,0.82
2022-09-21T15:37:52.479Z,0.62
2022-09-21T15:40:24.613Z,0.70
2022-09-21T15:45:30.460Z,0.73
2022-09-21T15:47:58.378Z,0.52
2022-09-21T15:50:27.297Z,1.08
2022-09-21T15:52:59.699Z,0.90
2022-09-21T15:55:30.270Z,1.20
2022-09-21T15:57:58.120Z,1.20
2022-09-21T16:00:26.397Z,0.70
2022-09-21T16:03:19.870Z,0.90
2022-09-21T16:05:49.924Z,0.98
2022-09-21T16:08:31.443Z,1.00
2022-09-21T16:11:14.128Z,1.00
2022-09-21T16:14:04.706Z,0.88
2022-09-21T16:16:32.160Z,1.23
2022-09-21T16:19:00.116Z,1.00
2022-09-21T16:21:35.139Z,1.40
2022-09-21T16:24:20.489Z,1.58
2022-09-21T16:27:03.268Z,1.20
2022-09-21T16:29:39.297Z,0.93
2022-09-21T16:32:18.817Z,1.80
2022-09-21T16:34:48.258Z,2.90
2022-09-21T16:37:24.371Z,2.97
2022-09-21T16:39:52.999Z,1.77
2022-09-21T16:42:21.279Z,1.10
2022-09-21T16:44:48.928Z,1.35
2022-09-21T16:47:22.780Z,1.48
2022-09-21T16:49:50.375Z,1.37
2022-09-21T16:52:18.120Z,1.60
2022-09-21T16:54:47.591Z,1.80
2022-09-21T16:57:14.894Z,1.50
2022-09-21T16:59:42.845Z,1.60
2022-09-21T17:02:12.222Z,1.70
2022-09-21T17:04:40.171Z,1.27
2022-09-21T17:07:13.450Z,1.20
2022-09-21T17:09:44.373Z,1.37
2022-09-21T17:12:17.532Z,1.20
2022-09-21T17:14:47.028Z,1.98
2022-09-21T17:17:20.922Z,2.42
2022-09-21T17:19:50.113Z,2.92
2022-09-21T17:22:18.437Z,3.12
2022-09-21T17:24:51.366Z,4.12
2022-09-21T17:27:21.833Z,4.95
2022-09-21T17:29:50.034Z,7.40
2022-09-21T17:32:21.679Z,8.73
2022-09-21T17:35:01.858Z,12.25
2022-09-21T17:37:29.914Z,9.63
2022-09-21T17:39:57.538Z,9.05
2022-09-21T17:42:25.977Z,6.20
2022-09-21T17:45:12.389Z,5.43
2022-09-21T17:47:40.855Z,3.90
2022-09-21T17:50:17.558Z,3.25
2022-09-21T17:53:04.291Z,3.12
2022-09-21T17:55:32.075Z,2.58
2022-09-21T17:58:25.772Z,2.35
2022-09-21T18:01:12.795Z,2.40
2022-09-21T18:03:44.487Z,1.55
2022-09-21T18:06:12.438Z,1.67
2022-09-21T18:08:40.966Z,2.15
2022-09-21T18:11:27.024Z,3.12
2022-09-21T18:14:06.937Z,4.90
2022-09-21T18:17:11.541Z,6.12
2022-09-21T18:19:55.027Z,5.28
2022-09-21T18:22:55.114Z,3.42
2022-09-21T18:25:32.482Z,3.08
2022-09-21T18:28:03.405Z,2.65
2022-09-21T18:30:31.765Z,2.53
2022-09-21T18:33:27.695Z,1.98
2022-09-21T18:36:27.606Z,2.12
2022-09-21T18:39:13.740Z,2.00
2022-09-21T18:41:46.752Z,2.20
2022-09-21T18:44:13.937Z,2.33
2022-09-21T18:47:03.216Z,1.80
2022-09-21T18:49:38.510Z,2.05
2022-09-21T18:52:24.868Z,1.70
2022-09-21T18:54:52.905Z,1.87
2022-09-21T18:57:23.332Z,1.90
2022-09-21T18:59:50.920Z,2.00
2022-09-21T19:02:20.268Z,2.05
2022-09-21T19:04:49.252Z,3.33
2022-09-21T19:07:35.282Z,5.00
2022-09-21T19:10:14.243Z,5.93
2022-09-21T19:13:03.127Z,4.78
2022-09-21T19:16:01.999Z,3.25
2022-09-21T19:18:46.043Z,2.90
2022-09-21T19:21:32.604Z,2.40
2022-09-21T19:24:05.789Z,2.30
2022-09-21T19:26:55.894Z,2.45
2022-09-21T19:29:40.931Z,2.28
2022-09-21T19:32:17.641Z,2.40
2022-09-21T19:34:45.353Z,2.33
2022-09-21T19:37:13.032Z,2.33
2022-09-21T19:39:40.700Z,1.95
2022-09-21T19:42:09.823Z,1.70
2022-09-21T19:45:01.861Z,1.80
2022-09-21T19:47:31.196Z,1.40
2022-09-21T19:50:15.900Z,1.70
2022-09-21T19:52:43.874Z,1.58
2022-09-21T19:55:35.523Z,1.62
2022-09-21T19:58:21.975Z,1.80
2022-09-21T20:00:54.768Z,1.90
2022-09-21T20:03:31.460Z,1.87
2022-09-21T20:06:06.782Z,1.98
2022-09-21T20:09:06.165Z,1.98
2022-09-21T20:11:44.612Z,2.37
2022-09-21T20:14:20.746Z,1.90
2022-09-21T20:16:55.407Z,2.08
2022-09-21T20:19:44.417Z,1.52
2022-09-21T20:22:17.502Z,1.67
2022-09-21T20:24:52.109Z,1.75
2022-09-21T20:27:34.816Z,1.70
2022-09-21T20:30:11.856Z,1.60
2022-09-21T20:32:41.331Z,1.83
2022-09-21T20:35:30.581Z,1.80
2022-09-21T20:38:02.296Z,1.67
2022-09-21T20:42:59.076Z,1.62
2022-09-21T20:45:26.743Z,1.50
2022-09-21T20:47:55.212Z,1.60
2022-09-21T20:50:25.467Z,1.77
2022-09-21T20:52:52.750Z,2.62
2022-09-21T20:55:20.480Z,1.65
2022-09-21T20:57:47.864Z,1.40
2022-09-21T21:00:16.753Z,1.40
2022-09-21T21:02:44.395Z,1.45
2022-09-21T21:05:11.746Z,1.62
2022-09-21T21:07:59.257Z,1.37
2022-09-21T21:10:26.830Z,1.55
2022-09-21T21:12:54.149Z,1.65
2022-09-21T21:15:21.432Z,1.70
2022-09-21T21:17:49.246Z,1.70
2022-09-21T21:20:17.266Z,1.42
2022-09-21T21:22:45.867Z,1.67
2022-09-21T21:25:13.448Z,1.60
2022-09-21T21:27:40.755Z,1.87
2022-09-21T21:30:09.588Z,1.98
2022-09-21T21:32:37.573Z,1.70
2022-09-21T21:35:05.711Z,1.70
2022-09-21T21:37:33.256Z,1.58
2022-09-21T21:40:01.381Z,1.85
2022-09-21T21:42:29.573Z,1.80
2022-09-21T21:44:57.054Z,1.70
2022-09-21T21:47:41.101Z,1.80
2022-09-21T21:50:09.796Z,1.80
2022-09-21T21:52:37.744Z,1.98
2022-09-21T21:55:05.771Z,2.12
2022-09-21T21:57:33.261Z,2.05
2022-09-21T22:00:00.999Z,2.10
2022-09-21T22:02:29.226Z,2.00
2022-09-21T22:04:56.864Z,2.30
2022-09-21T22:07:24.144Z,2.25
2022-09-21T22:09:51.437Z,2.20
2022-09-21T22:12:18.994Z,1.95
2022-09-21T22:14:47.628Z,1.98
2022-09-21T22:17:14.969Z,1.85
2022-09-21T22:19:42.913Z,1.90
2022-09-21T22:22:10.187Z,1.85
2022-09-21T22:24:37.470Z,2.03
2022-09-21T22:27:05.091Z,1.85
2022-09-21T22:29:32.358Z,1.98
2022-09-21T22:32:00.663Z,2.17
2022-09-21T22:34:28.263Z,2.70
2022-09-21T22:36:56.368Z,3.25
2022-09-21T22:39:23.718Z,2.60
2022-09-21T22:41:51.243Z,2.25
2022-09-21T22:44:18.586Z,1.90
2022-09-21T22:46:45.838Z,1.90
2022-09-21T22:49:13.387Z,1.90
2022-09-21T22:51:40.670Z,1.95
2022-09-21T22:54:08.061Z,1.80
2022-09-21T22:56:35.727Z,2.20
2022-09-21T22:59:04.230Z,2.30
2022-09-21T23:01:39.922Z,2.10
2022-09-21T23:04:10.130Z,2.15
2022-09-21T23:06:39.340Z,2.17
2022-09-21T23:09:09.224Z,2.35
2022-09-21T23:11:43.002Z,2.35
2022-09-21T23:14:11.141Z,2.30
2022-09-21T23:16:38.535Z,2.15
2022-09-21T23:19:06.030Z,2.28
2022-09-21T23:21:33.568Z,2.00
2022-09-21T23:24:02.441Z,2.40
2022-09-21T23:26:31.314Z,2.40
2022-09-21T23:29:00.631Z,2.40
2022-09-21T23:31:28.824Z,1.80
2022-09-21T23:33:58.141Z,2.67
2022-09-21T23:36:30.674Z,2.17
2022-09-21T23:38:58.645Z,2.58
2022-09-21T23:41:28.360Z,2.45
2022-09-21T23:43:56.524Z,2.80
2022-09-21T23:46:32.396Z,2.50
2022-09-21T23:49:00.782Z,2.30
2022-09-21T23:51:29.888Z,2.47
2022-09-21T23:53:58.046Z,2.87
2022-09-21T23:56:25.747Z,2.67
2022-09-21T23:58:53.118Z,2.47
